createdAt,value
2019-02-15T00:00:33.997Z,76.50
2019-02-15T00:02:42.187Z,76.80
2019-02-15T00:04:49.174Z,76.90
2019-02-15T00:06:52.877Z,76.70
2019-02-15T00:08:56.676Z,76.80
2019-02-15T00:11:00.132Z,76.90
2019-02-15T00:13:03.641Z,76.90
2019-02-15T00:15:07.172Z,77.00
2019-02-15T00:17:10.661Z,77.00
2019-02-15T00:19:19.161Z,76.90
2019-02-15T00:21:26.162Z,76.50
2019-02-15T00:23:29.610Z,76.90
2019-02-15T00:25:33.068Z,76.80
2019-02-15T00:27:36.505Z,76.90
2019-02-15T00:29:40.036Z,76.70
2019-02-15T00:31:45.164Z,76.50
2019-02-15T00:33:48.620Z,76.60
2019-02-15T00:35:52.969Z,76.50
2019-02-15T00:37:56.432Z,76.50
2019-02-15T00:39:59.888Z,76.60
2019-02-15T00:42:03.336Z,76.70
2019-02-15T00:44:06.825Z,76.70
2019-02-15T00:47:14.037Z,76.60
2019-02-15T00:49:53.091Z,76.70
2019-02-15T00:52:04.576Z,76.90
2019-02-15T00:56:15.650Z,76.70
2019-02-15T00:58:56.834Z,77.10
2019-02-15T01:01:05.488Z,77.20
2019-02-15T01:03:23.246Z,77.20
2019-02-15T01:05:34.679Z,76.90
2019-02-15T01:07:43.333Z,77.10
2019-02-15T01:09:52.776Z,77.20
2019-02-15T01:12:08.184Z,77.20
2019-02-15T01:14:11.686Z,77.20
2019-02-15T01:16:15.128Z,77.30
2019-02-15T01:18:18.624Z,77.30
2019-02-15T01:20:22.994Z,77.10
2019-02-15T01:22:27.455Z,77.20
2019-02-15T01:24:31.878Z,76.90
2019-02-15T01:26:39.733Z,77.00
2019-02-15T01:28:48.300Z,77.20
2019-02-15T01:30:58.812Z,77.20
2019-02-15T01:33:15.357Z,77.00
2019-02-15T01:35:28.843Z,76.90
2019-02-15T01:37:38.221Z,76.70
2019-02-15T01:39:48.625Z,76.90
2019-02-15T01:42:30.601Z,76.90
2019-02-15T01:44:39.134Z,77.00
2019-02-15T01:46:49.483Z,76.90
2019-02-15T01:48:53.855Z,76.70
2019-02-15T01:50:58.252Z,76.80
2019-02-15T01:53:02.660Z,76.80
2019-02-15T01:55:07.178Z,76.80
2019-02-15T01:57:11.565Z,76.70
2019-02-15T01:59:16.011Z,76.80
2019-02-15T02:01:23.004Z,76.70
2019-02-15T02:03:27.418Z,76.60
2019-02-15T02:05:31.766Z,76.60
2019-02-15T02:07:36.225Z,76.60
2019-02-15T02:09:40.637Z,76.70
2019-02-15T02:11:44.990Z,76.70
2019-02-15T02:13:50.013Z,76.40
2019-02-15T02:15:53.801Z,76.80
2019-02-15T02:17:58.251Z,76.60
2019-02-15T02:20:02.702Z,76.40
2019-02-15T02:22:07.081Z,76.60
2019-02-15T02:24:11.471Z,76.30
2019-02-15T02:26:15.942Z,76.40
2019-02-15T02:28:20.352Z,76.40
2019-02-15T02:30:24.766Z,76.40
2019-02-15T02:32:29.215Z,76.50
2019-02-15T02:34:33.582Z,76.40
2019-02-15T02:36:48.514Z,76.50
2019-02-15T02:38:52.882Z,76.50
2019-02-15T02:40:57.280Z,76.70
2019-02-15T02:43:01.723Z,76.80
2019-02-15T02:45:06.398Z,76.80
2019-02-15T02:47:10.782Z,77.50
2019-02-15T02:49:15.188Z,76.80
2019-02-15T02:51:19.628Z,76.80
2019-02-15T02:53:24.013Z,76.80
2019-02-15T02:55:28.428Z,76.80
2019-02-15T02:57:32.849Z,76.70
2019-02-15T02:59:37.235Z,76.70
2019-02-15T03:01:41.610Z,77.00
2019-02-15T03:03:45.994Z,76.70
2019-02-15T03:05:50.463Z,76.90
2019-02-15T03:07:54.865Z,76.90
2019-02-15T03:09:59.313Z,77.20
2019-02-15T03:12:03.831Z,77.40
2019-02-15T03:14:11.547Z,77.40
2019-02-15T03:16:12.614Z,77.50
2019-02-15T03:18:16.966Z,77.60
2019-02-15T03:20:30.986Z,77.60
2019-02-15T03:22:25.847Z,77.70
2019-02-15T03:24:30.251Z,77.60
2019-02-15T03:26:34.579Z,77.50
2019-02-15T03:28:39.944Z,78.10
2019-02-15T03:30:44.398Z,77.60
2019-02-15T03:32:48.857Z,77.50
2019-02-15T03:34:53.282Z,77.40
2019-02-15T03:37:02.692Z,77.40
2019-02-15T03:39:15.403Z,78.10
2019-02-15T03:41:25.101Z,77.40
2019-02-15T03:43:29.587Z,77.40
2019-02-15T03:45:33.981Z,77.50
2019-02-15T03:47:38.351Z,77.50
2019-02-15T03:49:42.734Z,77.50
2019-02-15T03:51:47.125Z,77.60
2019-02-15T03:53:51.517Z,77.60
2019-02-15T03:55:56.042Z,77.60
2019-02-15T03:58:00.481Z,77.60
2019-02-15T04:00:05.237Z,77.50
2019-02-15T04:02:09.651Z,77.80
2019-02-15T04:04:14.064Z,78.10
2019-02-15T04:06:18.482Z,78.00
2019-02-15T04:08:22.878Z,78.00
2019-02-15T04:10:27.428Z,77.80
2019-02-15T04:12:32.410Z,77.80
2019-02-15T04:14:36.307Z,78.00
2019-02-15T04:16:40.669Z,78.00
2019-02-15T04:18:45.104Z,78.00
2019-02-15T04:20:49.464Z,78.10
2019-02-15T04:22:53.904Z,78.30
2019-02-15T04:24:58.312Z,78.30
2019-02-15T04:27:02.723Z,78.30
2019-02-15T04:29:07.291Z,78.20
2019-02-15T04:31:11.743Z,78.30
2019-02-15T04:33:16.129Z,79.20
2019-02-15T04:35:20.638Z,78.40
2019-02-15T04:37:25.008Z,78.40
2019-02-15T04:39:29.498Z,78.50
2019-02-15T04:41:34.091Z,78.50
2019-02-15T04:43:38.509Z,78.60
2019-02-15T04:45:42.899Z,78.60
2019-02-15T04:47:47.331Z,78.70
2019-02-15T04:49:51.770Z,78.80
2019-02-15T04:51:56.174Z,78.80
2019-02-15T04:54:00.602Z,79.10
2019-02-15T04:56:05.118Z,78.90
2019-02-15T04:58:09.555Z,79.00
2019-02-15T05:00:14.725Z,78.90
2019-02-15T05:02:19.180Z,79.10
2019-02-15T05:04:23.550Z,79.00
2019-02-15T05:06:28.040Z,79.10
2019-02-15T05:08:32.547Z,79.10
2019-02-15T05:10:36.975Z,79.00
2019-02-15T05:12:41.435Z,79.00
2019-02-15T05:14:52.736Z,79.10
2019-02-15T05:16:50.345Z,79.10
2019-02-15T05:18:54.789Z,79.20
2019-02-15T05:20:59.192Z,79.30
2019-02-15T05:23:03.582Z,79.30
2019-02-15T05:25:08.080Z,79.30
2019-02-15T05:27:12.510Z,79.50
2019-02-15T05:29:16.915Z,79.40
2019-02-15T05:31:21.278Z,79.40
2019-02-15T05:33:25.709Z,79.40
2019-02-15T05:35:30.210Z,79.40
2019-02-15T05:37:34.723Z,79.30
2019-02-15T05:39:39.122Z,79.40
2019-02-15T05:41:43.606Z,79.40
2019-02-15T05:43:48.065Z,79.40
2019-02-15T05:45:52.438Z,79.30
2019-02-15T05:47:57.543Z,79.50
2019-02-15T05:50:01.962Z,79.40
2019-02-15T05:52:06.350Z,79.30
2019-02-15T05:54:10.823Z,79.30
2019-02-15T05:56:15.211Z,79.50
2019-02-15T05:58:19.584Z,79.30
2019-02-15T06:00:24.006Z,79.50
2019-02-15T06:02:28.402Z,79.60
2019-02-15T06:04:32.828Z,79.40
2019-02-15T06:06:37.372Z,79.40
2019-02-15T06:08:42.507Z,79.30
2019-02-15T06:10:47.307Z,79.30
2019-02-15T06:12:51.195Z,79.40
2019-02-15T06:14:55.661Z,79.60
2019-02-15T06:17:01.730Z,79.30
2019-02-15T06:19:04.670Z,79.40
2019-02-15T06:21:09.168Z,79.40
2019-02-15T06:23:13.567Z,79.60
2019-02-15T06:25:17.949Z,79.60
2019-02-15T06:27:22.333Z,79.40
2019-02-15T06:29:26.752Z,79.50
2019-02-15T06:31:31.134Z,79.30
2019-02-15T06:33:35.590Z,79.60
2019-02-15T06:35:40.042Z,79.70
2019-02-15T06:37:44.419Z,79.80
2019-02-15T06:39:49.047Z,79.80
2019-02-15T06:41:53.326Z,79.90
2019-02-15T06:43:57.686Z,80.00
2019-02-15T06:46:02.127Z,80.20
2019-02-15T06:48:06.535Z,80.40
2019-02-15T06:50:10.960Z,80.30
2019-02-15T06:52:15.349Z,80.30
2019-02-15T06:54:19.762Z,80.10
2019-02-15T06:56:24.202Z,80.20
2019-02-15T06:58:28.644Z,80.10
2019-02-15T07:00:44.173Z,80.20
2019-02-15T07:03:12.131Z,80.00
2019-02-15T07:05:26.559Z,80.10
2019-02-15T07:07:35.659Z,80.30
2019-02-15T07:09:40.176Z,80.40
2019-02-15T07:11:44.695Z,80.30
2019-02-15T07:13:49.189Z,80.30
2019-02-15T07:15:53.554Z,80.40
2019-02-15T07:17:57.980Z,80.60
2019-02-15T07:20:02.388Z,80.70
2019-02-15T07:22:07.422Z,80.70
2019-02-15T07:24:11.867Z,80.70
2019-02-15T07:26:16.254Z,80.80
2019-02-15T07:28:20.669Z,80.90
2019-02-15T07:30:25.219Z,80.80
2019-02-15T07:32:29.755Z,80.90
2019-02-15T07:34:34.155Z,81.00
2019-02-15T07:36:38.600Z,81.00
2019-02-15T07:38:43.017Z,81.00
2019-02-15T07:40:47.536Z,80.80
2019-02-15T07:42:51.934Z,80.70
2019-02-15T07:44:56.290Z,80.90
2019-02-15T07:47:00.720Z,81.00
2019-02-15T07:49:05.112Z,81.10
2019-02-15T07:51:10.077Z,81.00
2019-02-15T07:53:13.938Z,80.70
2019-02-15T07:55:18.418Z,82.00
2019-02-15T07:57:23.121Z,81.60
2019-02-15T07:59:27.525Z,81.60
2019-02-15T08:01:31.927Z,81.30
2019-02-15T08:03:36.296Z,81.40
2019-02-15T08:05:40.667Z,82.00
2019-02-15T08:07:45.093Z,81.90
2019-02-15T08:09:49.551Z,81.80
2019-02-15T08:11:53.964Z,81.90
2019-02-15T08:13:58.360Z,82.00
2019-02-15T08:16:02.995Z,82.10
2019-02-15T08:18:07.202Z,82.90
2019-02-15T08:20:11.840Z,83.30
2019-02-15T08:22:16.233Z,83.30
2019-02-15T08:24:20.617Z,83.20
2019-02-15T08:26:25.064Z,82.90
2019-02-15T08:28:29.434Z,83.40
2019-02-15T08:30:33.846Z,83.50
2019-02-15T08:32:38.332Z,82.90
2019-02-15T08:34:42.739Z,82.60
2019-02-15T08:36:47.269Z,82.30
2019-02-15T08:38:51.687Z,82.40
2019-02-15T08:40:56.156Z,83.10
2019-02-15T08:43:00.529Z,83.20
2019-02-15T08:45:05.706Z,83.90
2019-02-15T08:47:10.132Z,84.10
2019-02-15T08:49:14.513Z,84.70
2019-02-15T08:51:18.893Z,84.90
2019-02-15T08:53:23.362Z,84.90
2019-02-15T08:55:27.812Z,84.60
2019-02-15T08:57:32.148Z,84.90
2019-02-15T08:59:36.538Z,85.10
2019-02-15T09:01:40.914Z,84.90
2019-02-15T09:03:45.372Z,84.80
2019-02-15T09:05:49.810Z,84.80
2019-02-15T09:07:54.300Z,84.60
2019-02-15T09:09:58.668Z,84.90
2019-02-15T09:12:03.089Z,85.50
2019-02-15T09:14:07.469Z,85.20
2019-02-15T09:16:11.850Z,85.00
2019-02-15T09:18:16.267Z,85.10
2019-02-15T09:20:20.738Z,85.90
2019-02-15T09:22:25.115Z,86.00
2019-02-15T09:24:29.498Z,86.20
2019-02-15T09:26:33.923Z,85.60
2019-02-15T09:28:42.243Z,85.50
2019-02-15T09:30:50.695Z,85.60
2019-02-15T09:32:55.104Z,85.40
2019-02-15T09:34:59.474Z,84.60
2019-02-15T09:37:03.856Z,84.90
2019-02-15T09:39:08.579Z,83.40
2019-02-15T09:41:12.998Z,82.40
2019-02-15T09:43:17.383Z,82.90
2019-02-15T09:45:21.782Z,82.60
2019-02-15T09:47:26.226Z,79.90
2019-02-15T09:49:30.618Z,79.80
2019-02-15T09:51:35.071Z,82.20
2019-02-15T09:53:39.478Z,79.10
2019-02-15T09:55:43.895Z,79.70
2019-02-15T09:57:48.286Z,79.50
2019-02-15T09:59:52.706Z,78.60
2019-02-15T10:01:57.149Z,77.30
2019-02-15T10:04:01.571Z,76.70
2019-02-15T10:06:06.025Z,76.80
2019-02-15T10:08:10.370Z,77.20
2019-02-15T10:10:14.915Z,75.40
2019-02-15T10:12:19.474Z,74.80
2019-02-15T10:14:23.965Z,74.80
2019-02-15T10:16:31.192Z,74.10
2019-02-15T10:18:32.753Z,73.30
2019-02-15T10:20:37.167Z,73.60
2019-02-15T10:22:41.551Z,75.40
2019-02-15T10:24:49.269Z,74.40
2019-02-15T10:26:53.686Z,72.70
2019-02-15T10:28:58.141Z,71.10
2019-02-15T10:31:02.618Z,73.00
2019-02-15T10:33:07.001Z,72.60
2019-02-15T10:35:11.545Z,71.00
2019-02-15T10:37:15.928Z,70.10
2019-02-15T10:39:20.345Z,70.70
2019-02-15T10:41:24.750Z,70.60
2019-02-15T10:43:29.202Z,69.50
2019-02-15T10:45:33.835Z,68.40
2019-02-15T10:47:38.198Z,66.70
2019-02-15T10:49:42.617Z,64.20
2019-02-15T10:51:47.031Z,62.30
2019-02-15T10:53:51.380Z,62.40
2019-02-15T10:55:55.717Z,64.90
2019-02-15T10:58:00.111Z,61.30
2019-02-15T11:00:05.767Z,58.90
2019-02-15T11:02:10.362Z,59.70
2019-02-15T11:04:15.632Z,59.40
2019-02-15T11:06:20.533Z,60.20
2019-02-15T11:08:24.873Z,61.20
2019-02-15T11:10:29.396Z,60.80
2019-02-15T11:12:33.763Z,60.90
2019-02-15T11:14:38.170Z,59.10
2019-02-15T11:16:47.236Z,58.10
2019-02-15T11:18:47.659Z,58.80
2019-02-15T11:20:52.066Z,59.50
2019-02-15T11:22:56.497Z,56.50
2019-02-15T11:25:00.869Z,54.70
2019-02-15T11:27:05.362Z,57.00
2019-02-15T11:29:09.787Z,57.00
2019-02-15T11:31:14.255Z,57.20
2019-02-15T11:33:19.691Z,58.30
2019-02-15T11:35:24.354Z,55.40
2019-02-15T11:37:29.470Z,54.20
2019-02-15T11:39:34.184Z,57.00
2019-02-15T11:41:38.659Z,56.50
2019-02-15T11:43:43.024Z,55.60
2019-02-15T11:45:47.415Z,55.20
2019-02-15T11:47:51.805Z,53.70
2019-02-15T11:49:56.216Z,55.10
2019-02-15T11:52:00.583Z,55.80
2019-02-15T11:54:05.141Z,57.20
2019-02-15T11:56:09.613Z,56.60
2019-02-15T11:58:14.027Z,54.90
2019-02-15T12:00:23.078Z,56.20
2019-02-15T12:02:25.346Z,55.70
2019-02-15T12:04:29.690Z,57.10
2019-02-15T12:06:34.063Z,57.10
2019-02-15T12:08:38.468Z,57.50
2019-02-15T12:10:43.007Z,54.70
2019-02-15T12:12:47.434Z,54.20
2019-02-15T12:14:51.837Z,56.10
2019-02-15T12:17:05.262Z,55.40
2019-02-15T12:19:00.778Z,55.60
2019-02-15T12:21:05.231Z,55.40
2019-02-15T12:23:09.665Z,55.20
2019-02-15T12:25:14.065Z,55.20
2019-02-15T12:27:18.463Z,53.70
2019-02-15T12:29:22.884Z,54.10
2019-02-15T12:31:27.303Z,53.80
2019-02-15T12:33:31.662Z,53.00
2019-02-15T12:35:36.084Z,53.50
2019-02-15T12:37:40.588Z,50.50
2019-02-15T12:39:45.072Z,49.30
2019-02-15T12:41:49.483Z,50.20
2019-02-15T12:43:53.869Z,47.80
2019-02-15T12:45:58.242Z,49.40
2019-02-15T12:48:02.632Z,49.80
2019-02-15T12:50:09.710Z,47.50
2019-02-15T12:52:14.184Z,47.60
2019-02-15T12:54:18.877Z,47.00
2019-02-15T12:56:23.310Z,48.00
2019-02-15T12:58:27.695Z,48.70
2019-02-15T13:00:33.252Z,49.30
2019-02-15T13:02:36.585Z,50.10
2019-02-15T13:04:41.513Z,48.30
2019-02-15T13:06:46.950Z,47.90
2019-02-15T13:08:51.139Z,47.70
2019-02-15T13:10:55.551Z,48.30
2019-02-15T13:13:00.081Z,47.40
2019-02-15T13:15:04.631Z,45.50
2019-02-15T13:17:09.090Z,44.50
2019-02-15T13:19:13.624Z,47.80
2019-02-15T13:21:18.030Z,46.40
2019-02-15T13:23:22.518Z,45.60
2019-02-15T13:25:34.967Z,45.70
2019-02-15T13:27:31.375Z,45.20
2019-02-15T13:29:35.787Z,43.00
2019-02-15T13:31:40.596Z,44.00
2019-02-15T13:33:45.064Z,45.50
2019-02-15T13:35:49.585Z,42.10
2019-02-15T13:37:54.101Z,43.90
2019-02-15T13:39:58.551Z,41.80
2019-02-15T13:42:03.610Z,44.70
2019-02-15T13:44:08.035Z,43.90
2019-02-15T13:46:12.432Z,43.60
2019-02-15T13:48:16.871Z,41.10
2019-02-15T13:50:21.925Z,41.50
2019-02-15T13:52:26.314Z,41.20
2019-02-15T13:54:30.747Z,44.70
2019-02-15T13:56:35.156Z,44.20
2019-02-15T13:58:39.551Z,45.90
2019-02-15T14:00:44.872Z,42.20
2019-02-15T14:02:49.279Z,40.30
2019-02-15T14:04:53.732Z,41.40
2019-02-15T14:06:58.400Z,41.70
2019-02-15T14:09:02.974Z,42.50
2019-02-15T14:11:07.366Z,38.70
2019-02-15T14:13:11.827Z,40.30
2019-02-15T14:15:16.231Z,42.70
2019-02-15T14:17:20.765Z,40.40
2019-02-15T14:19:25.281Z,39.20
2019-02-15T14:21:29.684Z,39.80
2019-02-15T14:23:34.170Z,38.90
2019-02-15T14:25:38.576Z,40.00
2019-02-15T14:27:43.057Z,39.20
2019-02-15T14:29:47.404Z,42.00
2019-02-15T14:31:52.514Z,47.80
2019-02-15T14:33:56.928Z,44.50
2019-02-15T14:36:01.494Z,45.50
2019-02-15T14:38:06.081Z,49.50
2019-02-15T14:40:10.733Z,47.40
2019-02-15T14:42:15.122Z,44.30
2019-02-15T14:44:19.521Z,48.10
2019-02-15T14:46:24.033Z,45.80
2019-02-15T14:48:28.401Z,46.60
2019-02-15T14:50:32.793Z,46.10
2019-02-15T14:52:37.210Z,48.70
2019-02-15T14:54:41.594Z,47.10
2019-02-15T14:56:45.994Z,45.80
2019-02-15T14:58:50.451Z,48.80
2019-02-15T15:00:54.824Z,47.30
2019-02-15T15:02:59.188Z,48.10
2019-02-15T15:05:03.780Z,49.20
2019-02-15T15:07:08.169Z,49.50
2019-02-15T15:09:12.623Z,49.60
2019-02-15T15:11:17.060Z,48.40
2019-02-15T15:13:21.882Z,48.50
2019-02-15T15:15:26.355Z,46.80
2019-02-15T15:17:30.792Z,47.10
2019-02-15T15:19:35.605Z,45.40
2019-02-15T15:21:40.018Z,44.50
2019-02-15T15:23:44.642Z,44.90
2019-02-15T15:25:49.017Z,47.00
2019-02-15T15:27:53.427Z,44.90
2019-02-15T15:29:57.844Z,45.80
2019-02-15T15:32:02.289Z,43.90
2019-02-15T15:34:07.062Z,47.60
2019-02-15T15:36:11.537Z,48.90
2019-02-15T15:38:17.295Z,47.70
2019-02-15T15:40:22.136Z,46.60
2019-02-15T15:42:26.558Z,44.00
2019-02-15T15:44:31.002Z,46.20
2019-02-15T15:46:35.444Z,46.90
2019-02-15T15:48:39.890Z,45.20
2019-02-15T15:50:44.340Z,46.20
2019-02-15T15:52:49.495Z,47.00
2019-02-15T15:54:53.850Z,47.40
2019-02-15T15:56:58.261Z,48.00
2019-02-15T15:59:02.776Z,49.60
2019-02-15T16:01:07.362Z,46.70
2019-02-15T16:03:11.771Z,48.00
2019-02-15T16:05:16.200Z,50.60
2019-02-15T16:07:20.602Z,49.20
2019-02-15T16:09:25.027Z,47.80
2019-02-15T16:11:29.384Z,48.40
2019-02-15T16:13:33.734Z,47.50
2019-02-15T16:15:38.112Z,45.40
2019-02-15T16:17:42.870Z,47.10
2019-02-15T16:19:49.330Z,48.40
2019-02-15T16:21:51.846Z,44.70
2019-02-15T16:23:56.219Z,46.80
2019-02-15T16:26:01.456Z,46.20
2019-02-15T16:28:06.017Z,44.20
2019-02-15T16:30:11.493Z,48.70
2019-02-15T16:32:15.881Z,48.70
2019-02-15T16:34:20.302Z,47.80
2019-02-15T16:36:24.811Z,48.00
2019-02-15T16:38:29.177Z,46.20
2019-02-15T16:40:33.573Z,44.70
2019-02-15T16:42:37.993Z,44.30
2019-02-15T16:44:42.491Z,45.10
2019-02-15T16:46:47.314Z,46.60
2019-02-15T16:48:51.822Z,44.90
2019-02-15T16:50:56.210Z,44.40
2019-02-15T16:53:00.594Z,45.90
2019-02-15T16:55:12.392Z,46.20
2019-02-15T16:57:09.554Z,48.20
2019-02-15T16:59:13.999Z,46.40
2019-02-15T17:01:18.373Z,46.80
2019-02-15T17:03:22.778Z,46.10
2019-02-15T17:05:27.226Z,46.30
2019-02-15T17:07:31.602Z,47.40
2019-02-15T17:09:36.130Z,48.60
2019-02-15T17:11:40.546Z,48.80
2019-02-15T17:13:45.062Z,47.60
2019-02-15T17:15:49.465Z,49.50
2019-02-15T17:17:53.907Z,49.80
2019-02-15T17:19:58.332Z,48.30
2019-02-15T17:22:02.879Z,49.30
2019-02-15T17:24:08.579Z,48.30
2019-02-15T17:26:12.965Z,47.40
2019-02-15T17:28:17.367Z,48.10
2019-02-15T17:30:23.390Z,48.00
2019-02-15T17:32:27.757Z,49.50
2019-02-15T17:34:32.154Z,50.80
2019-02-15T17:36:36.602Z,49.50
2019-02-15T17:38:41.057Z,48.80
2019-02-15T17:40:45.982Z,51.80
2019-02-15T17:42:50.429Z,49.80
2019-02-15T17:44:54.858Z,49.60
2019-02-15T17:46:59.244Z,48.90
2019-02-15T17:49:04.001Z,48.30
2019-02-15T17:51:08.371Z,48.90
2019-02-15T17:53:12.727Z,48.60
2019-02-15T17:55:17.137Z,48.00
2019-02-15T17:57:21.552Z,48.10
2019-02-15T17:59:25.926Z,50.40
2019-02-15T18:01:30.408Z,51.70
2019-02-15T18:03:34.802Z,53.60
2019-02-15T18:05:39.234Z,52.40
2019-02-15T18:07:43.719Z,49.40
2019-02-15T18:09:48.149Z,49.90
2019-02-15T18:11:52.583Z,50.30
2019-02-15T18:13:56.979Z,49.70
2019-02-15T18:16:01.346Z,51.30
2019-02-15T18:18:06.300Z,49.30
2019-02-15T18:20:10.945Z,49.40
2019-02-15T18:22:15.316Z,49.50
2019-02-15T18:24:19.671Z,48.10
2019-02-15T18:26:24.115Z,47.40
2019-02-15T18:28:28.497Z,48.30
2019-02-15T18:30:32.881Z,48.70
2019-02-15T18:32:37.262Z,49.20
2019-02-15T18:34:41.691Z,50.10
2019-02-15T18:36:46.102Z,50.50
2019-02-15T18:38:50.498Z,50.80
2019-02-15T18:40:54.840Z,51.60
2019-02-15T18:42:59.201Z,51.60
2019-02-15T18:45:03.667Z,51.60
2019-02-15T18:47:08.118Z,52.80
2019-02-15T18:49:19.160Z,56.10
2019-02-15T18:51:16.993Z,55.20
2019-02-15T18:55:37.712Z,54.80
2019-02-15T18:57:42.097Z,53.90
2019-02-15T18:59:46.619Z,53.40
2019-02-15T19:01:51.016Z,51.80
2019-02-15T19:03:55.487Z,49.80
2019-02-15T19:05:59.872Z,49.10
2019-02-15T19:08:04.379Z,50.50
2019-02-15T19:10:10.183Z,50.70
2019-02-15T19:12:14.563Z,50.10
2019-02-15T19:14:19.057Z,50.80
2019-02-15T19:16:23.494Z,50.90
2019-02-15T19:18:27.892Z,50.90
2019-02-15T19:20:32.302Z,52.40
2019-02-15T19:22:36.694Z,51.10
2019-02-15T19:24:41.121Z,51.70
2019-02-15T19:26:45.521Z,53.50
2019-02-15T19:28:49.970Z,52.90
2019-02-15T19:30:54.319Z,52.90
2019-02-15T19:32:58.710Z,53.50
2019-02-15T19:35:03.276Z,53.00
2019-02-15T19:37:07.800Z,53.30
2019-02-15T19:39:12.263Z,53.40
2019-02-15T19:41:16.684Z,53.40
2019-02-15T19:43:21.101Z,53.40
2019-02-15T19:45:25.549Z,53.40
2019-02-15T19:47:29.942Z,53.40
2019-02-15T19:49:38.724Z,53.50
2019-02-15T19:51:38.950Z,54.10
2019-02-15T19:53:43.378Z,54.10
2019-02-15T19:55:47.777Z,53.70
2019-02-15T19:57:52.266Z,53.40
2019-02-15T19:59:56.685Z,53.30
2019-02-15T20:02:01.115Z,53.30
2019-02-15T20:04:05.851Z,53.90
2019-02-15T20:06:10.340Z,53.90
2019-02-15T20:08:14.830Z,53.70
2019-02-15T20:10:20.774Z,52.90
2019-02-15T20:12:25.224Z,53.80
2019-02-15T20:14:29.670Z,53.80
2019-02-15T20:16:34.264Z,52.70
2019-02-15T20:18:38.694Z,53.00
2019-02-15T20:20:43.177Z,51.20
2019-02-15T20:22:47.902Z,51.50
2019-02-15T20:24:52.356Z,51.60
2019-02-15T20:26:56.804Z,51.40
2019-02-15T20:29:01.322Z,52.20
2019-02-15T20:31:05.813Z,52.50
2019-02-15T20:33:10.355Z,51.20
2019-02-15T20:35:14.859Z,51.00
2019-02-15T20:37:19.299Z,51.80
2019-02-15T20:39:23.801Z,50.10
2019-02-15T20:41:28.254Z,50.20
2019-02-15T20:43:32.757Z,49.90
2019-02-15T20:45:37.242Z,50.10
2019-02-15T20:47:41.680Z,50.60
2019-02-15T20:49:46.140Z,51.30
2019-02-15T20:51:50.540Z,51.10
2019-02-15T20:53:54.985Z,51.20
2019-02-15T20:55:59.439Z,51.40
2019-02-15T20:58:04.037Z,51.40
2019-02-15T21:00:11.281Z,51.80
2019-02-15T21:02:15.793Z,51.10
2019-02-15T21:04:20.214Z,52.00
2019-02-15T21:06:24.722Z,50.30
2019-02-15T21:08:29.325Z,51.20
2019-02-15T21:10:33.693Z,50.90
2019-02-15T21:12:39.624Z,51.30
2019-02-15T21:14:42.706Z,51.80
2019-02-15T21:16:47.100Z,51.00
2019-02-15T21:18:51.622Z,52.10
2019-02-15T21:20:56.401Z,52.10
2019-02-15T21:23:00.815Z,52.70
2019-02-15T21:25:05.765Z,50.90
2019-02-15T21:27:10.180Z,51.10
2019-02-15T21:29:14.620Z,51.60
2019-02-15T21:31:18.994Z,51.00
2019-02-15T21:33:23.356Z,50.80
2019-02-15T21:35:27.889Z,51.50
2019-02-15T21:37:32.270Z,51.20
2019-02-15T21:39:36.649Z,52.10
2019-02-15T21:41:41.154Z,52.10
2019-02-15T21:43:45.580Z,52.90
2019-02-15T21:45:50.053Z,52.80
2019-02-15T21:47:54.409Z,52.90
2019-02-15T21:49:58.950Z,53.10
2019-02-15T21:52:03.480Z,53.10
2019-02-15T21:54:07.823Z,52.70
2019-02-15T21:56:12.456Z,52.70
2019-02-15T21:58:17.998Z,52.70
2019-02-15T22:00:22.516Z,53.30
2019-02-15T22:02:26.870Z,52.70
2019-02-15T22:04:31.316Z,52.60
2019-02-15T22:06:35.701Z,54.50
2019-02-15T22:08:40.051Z,53.60
2019-02-15T22:10:44.434Z,53.90
2019-02-15T22:12:48.910Z,53.50
2019-02-15T22:14:54.251Z,54.50
2019-02-15T22:16:58.705Z,53.90
2019-02-15T22:19:03.373Z,53.90
2019-02-15T22:21:07.868Z,54.70
2019-02-15T22:23:12.272Z,55.50
2019-02-15T22:25:16.686Z,54.80
2019-02-15T22:27:21.004Z,55.00
2019-02-15T22:29:25.567Z,55.10
2019-02-15T22:31:29.941Z,54.90
2019-02-15T22:33:34.686Z,55.10
2019-02-15T22:35:39.082Z,55.70
2019-02-15T22:37:43.521Z,55.40
2019-02-15T22:39:47.923Z,55.80
2019-02-15T22:41:52.280Z,55.60
2019-02-15T22:43:56.691Z,56.20
2019-02-15T22:46:01.035Z,56.10
2019-02-15T22:48:05.455Z,56.00
2019-02-15T22:50:09.982Z,56.00
2019-02-15T22:52:15.147Z,55.90
2019-02-15T22:54:19.536Z,56.50
2019-02-15T22:56:23.965Z,56.10
2019-02-15T22:58:28.325Z,56.30
2019-02-15T23:00:42.665Z,56.60
2019-02-15T23:02:47.089Z,57.40
2019-02-15T23:04:51.466Z,58.10
2019-02-15T23:06:55.897Z,56.90
2019-02-15T23:09:00.987Z,57.50
2019-02-15T23:11:05.733Z,57.00
2019-02-15T23:13:10.329Z,57.40
2019-02-15T23:15:14.743Z,58.10
2019-02-15T23:17:19.179Z,57.80
2019-02-15T23:19:23.833Z,58.10
2019-02-15T23:21:28.209Z,57.90
2019-02-15T23:23:32.602Z,57.70
2019-02-15T23:25:37.007Z,58.10
2019-02-15T23:27:41.399Z,58.70
2019-02-15T23:29:45.778Z,58.20
2019-02-15T23:31:50.238Z,58.70
2019-02-15T23:33:54.599Z,59.50
2019-02-15T23:35:59.006Z,59.20
2019-02-15T23:38:03.467Z,59.40
2019-02-15T23:40:07.907Z,59.50
2019-02-15T23:42:12.359Z,58.30
2019-02-15T23:44:16.702Z,58.60
2019-02-15T23:46:21.133Z,58.80
2019-02-15T23:48:25.547Z,59.10
2019-02-15T23:50:29.905Z,59.10
2019-02-15T23:52:34.314Z,59.40
2019-02-15T23:54:38.735Z,59.30
2019-02-15T23:56:43.110Z,59.50
2019-02-15T23:58:47.598Z,59.30
